createdAt,value
2019-04-26T00:00:33.575Z,99.90
2019-04-26T00:03:07.777Z,99.90
2019-04-26T00:05:39.720Z,99.90
2019-04-26T00:08:10.868Z,99.90
2019-04-26T00:11:04.275Z,99.90
2019-04-26T00:13:53.978Z,99.90
2019-04-26T00:16:36.279Z,99.90
2019-04-26T00:19:07.200Z,99.90
2019-04-26T00:21:43.751Z,99.90
2019-04-26T00:24:15.183Z,99.90
2019-04-26T00:26:45.611Z,99.90
2019-04-26T00:29:16.863Z,99.90
2019-04-26T00:31:46.794Z,99.90
2019-04-26T00:34:17.494Z,99.90
2019-04-26T00:36:47.511Z,99.90
2019-04-26T00:39:18.233Z,99.90
2019-04-26T00:41:49.057Z,99.90
2019-04-26T00:44:22.794Z,99.90
2019-04-26T00:46:54.849Z,99.90
2019-04-26T00:49:25.396Z,99.90
2019-04-26T00:52:09.140Z,99.90
2019-04-26T00:54:39.858Z,99.90
2019-04-26T00:57:10.188Z,99.90
2019-04-26T00:59:40.982Z,99.90
2019-04-26T01:02:16.705Z,99.90
2019-04-26T01:04:48.240Z,99.90
2019-04-26T01:07:19.074Z,99.90
2019-04-26T01:09:49.379Z,99.90
2019-04-26T01:12:19.711Z,99.90
2019-04-26T01:14:58.652Z,99.90
2019-04-26T01:17:35.844Z,99.90
2019-04-26T01:20:10.372Z,99.90
2019-04-26T01:22:55.800Z,99.90
2019-04-26T01:25:45.216Z,99.90
2019-04-26T01:28:21.313Z,99.90
2019-04-26T01:30:52.480Z,99.90
2019-04-26T01:33:24.108Z,99.90
2019-04-26T01:35:57.602Z,99.90
2019-04-26T01:38:27.779Z,99.90
2019-04-26T01:41:01.762Z,99.90
2019-04-26T01:43:59.827Z,99.90
2019-04-26T01:46:37.888Z,99.90
2019-04-26T01:49:10.829Z,99.90
2019-04-26T01:51:46.810Z,99.90
2019-04-26T01:54:20.159Z,99.90
2019-04-26T01:56:57.791Z,99.90
2019-04-26T01:59:37.512Z,99.90
2019-04-26T02:02:26.454Z,99.90
2019-04-26T02:04:59.595Z,99.90
2019-04-26T02:07:39.340Z,99.90
2019-04-26T02:10:15.863Z,99.90
2019-04-26T02:12:52.296Z,99.90
2019-04-26T02:15:25.611Z,99.90
2019-04-26T02:17:57.532Z,99.90
2019-04-26T02:21:11.777Z,99.90
2019-04-26T02:23:55.042Z,99.90
2019-04-26T02:26:34.826Z,99.90
2019-04-26T02:29:09.852Z,99.90
2019-04-26T02:31:42.136Z,99.90
2019-04-26T02:34:13.295Z,99.90
2019-04-26T02:36:56.910Z,99.90
2019-04-26T02:39:22.867Z,99.90
2019-04-26T02:41:56.132Z,99.90
2019-04-26T02:44:38.371Z,99.90
2019-04-26T02:48:00.780Z,99.90
2019-04-26T02:50:45.380Z,99.90
2019-04-26T02:53:47.327Z,99.90
2019-04-26T02:56:25.634Z,99.90
2019-04-26T02:59:53.142Z,99.90
2019-04-26T03:02:30.127Z,99.90
2019-04-26T03:05:08.189Z,99.90
2019-04-26T03:07:59.255Z,99.90
2019-04-26T03:10:36.784Z,99.90
2019-04-26T03:13:11.060Z,99.90
2019-04-26T03:16:04.584Z,99.90
2019-04-26T03:18:45.512Z,99.90
2019-04-26T03:21:25.826Z,99.90
2019-04-26T03:24:07.005Z,99.90
2019-04-26T03:27:08.869Z,99.90
2019-04-26T03:29:51.347Z,99.90
2019-04-26T03:33:08.745Z,99.90
2019-04-26T03:36:17.271Z,99.90
2019-04-26T03:39:34.278Z,99.90
2019-04-26T03:42:47.199Z,99.90
2019-04-26T03:45:33.008Z,99.90
2019-04-26T03:48:35.220Z,99.90
2019-04-26T03:51:13.843Z,99.90
2019-04-26T03:53:51.494Z,99.90
2019-04-26T03:56:52.515Z,99.90
2019-04-26T04:00:03.652Z,99.90
2019-04-26T04:02:57.011Z,99.90
2019-04-26T04:05:40.149Z,99.90
2019-04-26T04:08:14.562Z,99.90
2019-04-26T04:10:54.905Z,99.90
2019-04-26T04:13:51.527Z,99.90
2019-04-26T04:16:59.026Z,99.90
2019-04-26T04:20:26.136Z,99.90
2019-04-26T04:23:02.612Z,99.90
2019-04-26T04:25:41.164Z,99.90
2019-04-26T04:28:26.248Z,99.90
2019-04-26T04:31:17.513Z,99.90
2019-04-26T04:34:09.587Z,99.90
2019-04-26T04:36:50.576Z,99.90
2019-04-26T04:39:42.037Z,99.90
2019-04-26T04:42:36.467Z,99.90
2019-04-26T04:46:00.470Z,99.90
2019-04-26T04:49:06.191Z,99.90
2019-04-26T04:52:15.527Z,99.90
2019-04-26T04:55:05.155Z,99.90
2019-04-26T04:58:10.335Z,99.90
2019-04-26T05:01:28.329Z,99.90
2019-04-26T05:04:09.380Z,99.90
2019-04-26T05:07:25.979Z,99.90
2019-04-26T05:10:22.684Z,99.90
2019-04-26T05:13:16.659Z,99.90
2019-04-26T05:16:18.612Z,99.90
2019-04-26T05:19:29.560Z,99.90
2019-04-26T05:22:47.329Z,99.90
2019-04-26T05:25:56.770Z,99.90
2019-04-26T05:28:38.460Z,99.90
2019-04-26T05:31:38.052Z,99.90
2019-04-26T05:34:31.739Z,99.90
2019-04-26T05:37:38.721Z,99.90
2019-04-26T05:40:40.897Z,99.90
2019-04-26T05:44:01.549Z,99.90
2019-04-26T05:47:30.908Z,99.90
2019-04-26T05:50:43.453Z,99.90
2019-04-26T05:53:52.789Z,99.90
2019-04-26T05:56:49.897Z,99.90
2019-04-26T05:59:33.891Z,99.90
2019-04-26T06:02:44.018Z,99.90
2019-04-26T06:05:52.305Z,99.90
2019-04-26T06:09:11.740Z,99.90
2019-04-26T06:11:51.900Z,99.90
2019-04-26T06:14:58.991Z,99.90
2019-04-26T06:18:10.033Z,99.90
2019-04-26T06:20:59.802Z,99.90
2019-04-26T06:23:58.271Z,99.90
2019-04-26T06:26:42.303Z,99.90
2019-04-26T06:29:17.898Z,99.90
2019-04-26T06:32:06.373Z,99.90
2019-04-26T06:34:50.414Z,99.90
2019-04-26T06:37:36.133Z,99.90
2019-04-26T06:40:18.722Z,99.90
2019-04-26T06:47:59.057Z,99.90
2019-04-26T06:50:26.970Z,99.90
2019-04-26T06:53:23.219Z,99.90
2019-04-26T06:56:13.838Z,99.90
2019-04-26T06:59:39.527Z,99.90
2019-04-26T07:02:19.567Z,99.90
2019-04-26T07:05:23.047Z,99.90
2019-04-26T07:08:13.263Z,99.90
2019-04-26T07:11:31.560Z,99.90
2019-04-26T07:14:20.871Z,99.90
2019-04-26T07:17:05.498Z,99.90
2019-04-26T07:20:25.862Z,99.90
2019-04-26T07:23:35.350Z,99.90
2019-04-26T07:26:43.581Z,99.90
2019-04-26T07:30:05.179Z,99.90
2019-04-26T07:33:04.260Z,99.90
2019-04-26T07:36:01.198Z,99.90
2019-04-26T07:39:33.979Z,99.90
2019-04-26T07:43:12.625Z,99.90
2019-04-26T07:46:09.000Z,99.90
2019-04-26T07:49:26.364Z,99.90
2019-04-26T07:52:43.869Z,99.90
2019-04-26T07:55:38.715Z,99.90
2019-04-26T07:58:51.097Z,99.90
2019-04-26T08:01:48.570Z,99.90
2019-04-26T08:04:23.466Z,99.90
2019-04-26T08:07:06.337Z,99.90
2019-04-26T08:09:46.038Z,99.90
2019-04-26T08:12:16.991Z,99.90
2019-04-26T08:15:11.249Z,99.90
2019-04-26T08:18:09.162Z,99.90
2019-04-26T08:20:49.580Z,99.90
2019-04-26T08:23:39.695Z,99.90
2019-04-26T08:26:05.117Z,99.90
2019-04-26T08:28:38.171Z,99.90
2019-04-26T08:31:15.427Z,99.90
2019-04-26T08:33:53.344Z,99.90
2019-04-26T08:36:36.033Z,99.90
2019-04-26T08:39:15.877Z,99.90
2019-04-26T08:41:50.081Z,99.90
2019-04-26T08:44:36.859Z,99.90
2019-04-26T08:47:26.401Z,99.90
2019-04-26T08:50:04.218Z,99.90
2019-04-26T08:52:37.293Z,99.90
2019-04-26T08:55:08.704Z,99.90
2019-04-26T08:57:44.008Z,99.90
2019-04-26T09:00:36.959Z,99.90
2019-04-26T09:03:43.227Z,99.90
2019-04-26T09:06:49.494Z,99.90
2019-04-26T09:09:26.275Z,99.90
2019-04-26T09:12:03.944Z,99.90
2019-04-26T09:14:37.839Z,99.90
2019-04-26T09:17:08.294Z,99.90
2019-04-26T09:19:46.103Z,99.90
2019-04-26T09:22:27.651Z,99.90
2019-04-26T09:25:14.449Z,99.90
2019-04-26T09:28:13.656Z,99.90
2019-04-26T09:31:02.659Z,99.90
2019-04-26T09:33:44.197Z,99.90
2019-04-26T09:36:24.130Z,99.90
2019-04-26T09:38:54.171Z,99.90
2019-04-26T09:41:26.606Z,99.90
2019-04-26T09:44:14.563Z,99.90
2019-04-26T09:47:13.003Z,99.90
2019-04-26T09:50:15.467Z,99.90
2019-04-26T09:52:52.032Z,99.90
2019-04-26T09:55:34.800Z,99.90
2019-04-26T09:58:01.447Z,99.90
2019-04-26T10:00:44.139Z,99.90
2019-04-26T10:03:24.574Z,99.90
2019-04-26T10:06:17.017Z,99.90
2019-04-26T10:08:39.451Z,99.90
2019-04-26T10:11:11.436Z,99.90
2019-04-26T10:13:48.721Z,99.90
2019-04-26T10:16:37.322Z,99.90
2019-04-26T10:19:12.833Z,99.90
2019-04-26T10:21:44.981Z,99.90
2019-04-26T10:24:18.918Z,99.90
2019-04-26T10:26:59.209Z,99.90
2019-04-26T10:29:29.705Z,99.90
2019-04-26T10:32:00.910Z,99.90
2019-04-26T10:34:34.958Z,99.90
2019-04-26T10:37:06.212Z,99.90
2019-04-26T10:39:38.509Z,99.90
2019-04-26T10:42:15.230Z,99.90
2019-04-26T10:44:44.959Z,99.90
2019-04-26T10:47:18.157Z,99.90
2019-04-26T10:49:49.194Z,99.90
2019-04-26T10:52:36.404Z,99.90
2019-04-26T10:55:27.330Z,99.90
2019-04-26T10:58:08.140Z,99.90
2019-04-26T11:00:52.769Z,99.90
2019-04-26T11:03:43.800Z,99.90
2019-04-26T11:06:27.875Z,99.90
2019-04-26T11:09:18.799Z,99.00
2019-04-26T11:12:03.933Z,93.80
2019-04-26T11:14:53.160Z,96.20
2019-04-26T11:17:22.325Z,96.20
2019-04-26T11:19:56.987Z,93.00
2019-04-26T11:22:33.446Z,95.50
2019-04-26T11:25:04.188Z,95.60
2019-04-26T11:27:44.352Z,97.80
2019-04-26T11:30:20.906Z,98.30
2019-04-26T11:32:55.083Z,99.20
2019-04-26T11:35:29.320Z,99.60
2019-04-26T11:37:57.219Z,99.90
2019-04-26T11:40:27.534Z,99.90
2019-04-26T11:43:00.290Z,99.70
2019-04-26T11:45:30.731Z,99.90
2019-04-26T11:48:03.308Z,98.70
2019-04-26T11:50:38.369Z,99.50
2019-04-26T11:53:11.796Z,98.40
2019-04-26T11:55:47.667Z,92.80
2019-04-26T11:58:22.485Z,88.90
2019-04-26T12:00:58.225Z,90.20
2019-04-26T12:03:31.911Z,92.20
2019-04-26T12:06:21.342Z,94.70
2019-04-26T12:09:01.810Z,94.10
2019-04-26T12:11:35.199Z,93.20
2019-04-26T12:14:04.528Z,90.70
2019-04-26T12:16:47.069Z,84.90
2019-04-26T12:19:07.303Z,85.60
2019-04-26T12:21:37.786Z,87.70
2019-04-26T12:24:16.339Z,90.50
2019-04-26T12:26:51.975Z,87.90
2019-04-26T12:29:22.532Z,90.10
2019-04-26T12:31:54.196Z,90.50
2019-04-26T12:34:50.745Z,89.20
2019-04-26T12:37:27.315Z,85.90
2019-04-26T12:40:01.317Z,83.50
2019-04-26T12:42:31.709Z,79.70
2019-04-26T12:45:18.336Z,80.20
2019-04-26T12:47:52.111Z,75.30
2019-04-26T12:50:24.645Z,76.00
2019-04-26T12:52:55.592Z,76.20
2019-04-26T12:55:27.450Z,72.60
2019-04-26T12:58:02.558Z,65.80
2019-04-26T13:00:37.494Z,65.90
2019-04-26T13:03:19.399Z,66.40
2019-04-26T13:05:40.089Z,63.40
2019-04-26T13:08:13.190Z,63.70
2019-04-26T13:11:00.539Z,63.00
2019-04-26T13:13:50.911Z,65.80
2019-04-26T13:16:30.474Z,61.50
2019-04-26T13:19:01.492Z,58.30
2019-04-26T13:21:33.054Z,57.70
2019-04-26T13:24:12.786Z,56.00
2019-04-26T13:26:45.593Z,56.80
2019-04-26T13:29:16.786Z,57.60
2019-04-26T13:31:49.593Z,56.90
2019-04-26T13:34:21.017Z,56.30
2019-04-26T13:37:02.971Z,55.50
2019-04-26T13:39:41.090Z,57.10
2019-04-26T13:42:13.690Z,57.10
2019-04-26T13:45:02.292Z,58.80
2019-04-26T13:47:52.302Z,59.60
2019-04-26T13:50:28.267Z,59.60
2019-04-26T13:52:59.270Z,61.70
2019-04-26T13:55:33.882Z,67.20
2019-04-26T13:58:04.350Z,62.70
2019-04-26T14:00:39.670Z,64.20
2019-04-26T14:03:13.875Z,62.40
2019-04-26T14:05:53.248Z,61.30
2019-04-26T14:08:33.408Z,60.30
2019-04-26T14:11:08.602Z,59.80
2019-04-26T14:13:41.141Z,62.20
2019-04-26T14:16:17.155Z,62.00
2019-04-26T14:18:49.561Z,60.90
2019-04-26T14:21:22.612Z,59.90
2019-04-26T14:24:13.498Z,61.60
2019-04-26T14:26:51.567Z,61.10
2019-04-26T14:29:32.379Z,60.80
2019-04-26T14:32:09.963Z,59.40
2019-04-26T14:34:41.663Z,61.50
2019-04-26T14:37:15.500Z,64.10
2019-04-26T14:39:59.155Z,61.60
2019-04-26T14:42:34.248Z,60.60
2019-04-26T14:45:06.109Z,59.90
2019-04-26T14:47:47.216Z,58.90
2019-04-26T14:50:28.202Z,59.60
2019-04-26T14:53:02.475Z,59.80
2019-04-26T14:55:41.873Z,61.90
2019-04-26T14:58:23.838Z,61.70
2019-04-26T15:01:03.176Z,62.50
2019-04-26T15:03:44.256Z,62.70
2019-04-26T15:06:27.974Z,61.70
2019-04-26T15:09:02.979Z,62.00
2019-04-26T15:11:37.120Z,61.80
2019-04-26T15:14:12.719Z,64.20
2019-04-26T15:16:54.314Z,62.80
2019-04-26T15:19:47.394Z,62.80
2019-04-26T15:22:17.530Z,61.70
2019-04-26T15:24:52.310Z,62.50
2019-04-26T15:27:25.058Z,60.70
2019-04-26T15:30:04.158Z,61.40
2019-04-26T15:32:32.806Z,58.50
2019-04-26T15:35:08.545Z,58.20
2019-04-26T15:37:42.204Z,59.00
2019-04-26T15:40:35.167Z,58.50
2019-04-26T15:43:23.830Z,59.90
2019-04-26T15:46:16.564Z,62.50
2019-04-26T15:49:15.746Z,63.00
2019-04-26T15:51:47.040Z,65.00
2019-04-26T15:54:21.569Z,64.60
2019-04-26T15:56:53.885Z,65.20
2019-04-26T15:59:25.396Z,65.90
2019-04-26T16:02:03.218Z,65.50
2019-04-26T16:04:47.437Z,63.30
2019-04-26T16:07:27.342Z,62.40
2019-04-26T16:09:58.428Z,60.10
2019-04-26T16:12:29.307Z,60.60
2019-04-26T16:15:06.405Z,58.50
2019-04-26T16:17:40.128Z,59.30
2019-04-26T16:20:11.917Z,58.40
2019-04-26T16:22:43.680Z,58.60
2019-04-26T16:25:22.960Z,60.00
2019-04-26T16:28:17.781Z,59.70
2019-04-26T16:30:58.275Z,59.30
2019-04-26T16:33:33.444Z,62.50
2019-04-26T16:36:15.018Z,62.60
2019-04-26T16:39:05.615Z,62.50
2019-04-26T16:41:38.261Z,61.60
2019-04-26T16:44:13.175Z,63.00
2019-04-26T16:46:47.300Z,63.50
2019-04-26T16:49:19.539Z,65.40
2019-04-26T16:51:53.859Z,68.00
2019-04-26T16:54:26.719Z,65.90
2019-04-26T16:57:06.806Z,65.30
2019-04-26T16:59:36.520Z,65.50
2019-04-26T17:02:13.012Z,66.80
2019-04-26T17:04:49.109Z,66.20
2019-04-26T17:07:29.660Z,66.10
2019-04-26T17:10:09.450Z,68.30
2019-04-26T17:12:42.277Z,72.90
2019-04-26T17:15:17.455Z,90.10
2019-04-26T17:18:00.247Z,91.50
2019-04-26T17:20:40.561Z,99.70
2019-04-26T17:23:30.157Z,95.30
2019-04-26T17:26:24.916Z,99.90
2019-04-26T17:28:59.076Z,99.90
2019-04-26T17:31:35.540Z,99.90
2019-04-26T17:34:30.155Z,99.90
2019-04-26T17:37:17.514Z,99.90
2019-04-26T17:40:03.846Z,99.90
2019-04-26T17:42:40.702Z,99.90
2019-04-26T17:45:17.152Z,99.90
2019-04-26T17:48:06.398Z,99.90
2019-04-26T17:50:40.088Z,99.90
2019-04-26T17:53:28.602Z,99.90
2019-04-26T17:56:41.981Z,99.90
2019-04-26T18:00:11.253Z,99.90
2019-04-26T18:02:54.359Z,99.90
2019-04-26T18:05:41.913Z,99.90
2019-04-26T18:08:33.784Z,99.90
2019-04-26T18:10:52.140Z,99.90
2019-04-26T18:13:31.915Z,92.50
2019-04-26T18:16:50.878Z,91.10
2019-04-26T18:20:09.941Z,95.40
2019-04-26T18:22:50.816Z,99.90
2019-04-26T18:25:45.108Z,99.90
2019-04-26T18:28:33.657Z,99.90
2019-04-26T18:31:15.514Z,99.90
2019-04-26T18:33:49.842Z,99.90
2019-04-26T18:36:21.283Z,99.90
2019-04-26T18:38:57.569Z,99.90
2019-04-26T18:41:34.835Z,99.90
2019-04-26T18:44:36.983Z,99.90
2019-04-26T18:47:32.725Z,99.90
2019-04-26T18:50:09.135Z,99.90
2019-04-26T18:53:10.278Z,99.90
2019-04-26T18:55:49.720Z,99.90
2019-04-26T18:58:34.742Z,99.90
2019-04-26T19:01:17.936Z,99.90
2019-04-26T19:03:50.767Z,99.90
2019-04-26T19:06:31.571Z,99.90
2019-04-26T19:09:18.529Z,99.90
2019-04-26T19:12:01.572Z,99.90
2019-04-26T19:15:07.779Z,99.90
2019-04-26T19:17:55.184Z,99.90
2019-04-26T19:20:40.993Z,99.90
2019-04-26T19:23:22.314Z,99.90
2019-04-26T19:25:55.779Z,99.90
2019-04-26T19:28:39.979Z,99.90
2019-04-26T19:31:23.882Z,99.90
2019-04-26T19:33:56.021Z,99.90
2019-04-26T19:36:43.992Z,99.90
2019-04-26T19:39:31.955Z,99.90
2019-04-26T19:42:06.028Z,99.90
2019-04-26T19:44:42.001Z,99.90
2019-04-26T19:47:39.238Z,99.90
2019-04-26T19:50:36.256Z,99.90
2019-04-26T19:53:42.335Z,99.90
2019-04-26T19:56:46.314Z,99.90
2019-04-26T19:59:37.821Z,99.90
2019-04-26T20:02:39.039Z,99.90
2019-04-26T20:05:27.974Z,99.90
2019-04-26T20:08:23.439Z,99.90
2019-04-26T20:11:12.815Z,99.90
2019-04-26T20:13:53.510Z,99.90
2019-04-26T20:16:30.210Z,99.90
2019-04-26T20:19:37.234Z,99.90
2019-04-26T20:22:28.152Z,99.90
2019-04-26T20:24:57.471Z,99.90
2019-04-26T20:27:43.331Z,99.90
2019-04-26T20:30:27.785Z,99.90
2019-04-26T20:33:12.537Z,99.90
2019-04-26T20:35:47.144Z,99.90
2019-04-26T20:38:26.541Z,99.90
2019-04-26T20:41:17.933Z,99.90
2019-04-26T20:44:05.175Z,99.90
2019-04-26T20:46:34.481Z,99.90
2019-04-26T20:49:22.877Z,99.90
2019-04-26T20:51:52.828Z,99.90
2019-04-26T20:54:25.344Z,99.90
2019-04-26T20:57:13.028Z,99.90
2019-04-26T20:59:52.092Z,99.90
2019-04-26T21:02:34.302Z,99.90
2019-04-26T21:05:06.133Z,99.90
2019-04-26T21:07:38.395Z,99.90
2019-04-26T21:10:22.039Z,99.90
2019-04-26T21:13:15.287Z,99.90
2019-04-26T21:16:15.721Z,99.90
2019-04-26T21:18:52.578Z,99.90
2019-04-26T21:21:34.127Z,99.90
2019-04-26T21:24:19.599Z,99.90
2019-04-26T21:27:11.866Z,99.90
2019-04-26T21:30:18.879Z,99.90
2019-04-26T21:33:06.592Z,99.90
2019-04-26T21:35:44.502Z,99.90
2019-04-26T21:39:10.605Z,99.90
2019-04-26T21:41:53.285Z,99.90
2019-04-26T21:44:29.169Z,99.90
2019-04-26T21:47:04.289Z,99.90
2019-04-26T21:50:02.294Z,99.90
2019-04-26T21:52:58.638Z,99.90
2019-04-26T21:55:35.407Z,99.90
2019-04-26T21:58:09.068Z,99.90
2019-04-26T22:01:04.959Z,99.90
2019-04-26T22:03:38.439Z,99.90
2019-04-26T22:06:11.896Z,99.90
2019-04-26T22:09:17.384Z,99.90
2019-04-26T22:11:53.960Z,99.90
2019-04-26T22:14:46.455Z,99.90
2019-04-26T22:17:34.786Z,99.90
2019-04-26T22:20:26.520Z,99.90
2019-04-26T22:23:26.730Z,99.90
2019-04-26T22:26:16.588Z,99.90
2019-04-26T22:28:56.566Z,99.90
2019-04-26T22:31:28.824Z,99.90
2019-04-26T22:34:08.939Z,99.90
2019-04-26T22:36:41.336Z,99.90
2019-04-26T22:39:26.524Z,99.90
2019-04-26T22:42:19.014Z,99.90
2019-04-26T22:45:03.217Z,99.90
2019-04-26T22:48:23.231Z,99.90
2019-04-26T22:50:52.056Z,99.90
2019-04-26T22:53:35.979Z,99.90
2019-04-26T22:56:32.604Z,99.90
2019-04-26T22:59:22.933Z,99.90
2019-04-26T23:02:13.779Z,99.90
2019-04-26T23:05:23.087Z,99.90
2019-04-26T23:08:16.831Z,99.90
2019-04-26T23:10:50.943Z,99.90
2019-04-26T23:13:45.708Z,99.90
2019-04-26T23:17:05.663Z,99.90
2019-04-26T23:20:13.073Z,99.90
2019-04-26T23:22:42.697Z,99.90
2019-04-26T23:25:13.707Z,99.90
2019-04-26T23:27:43.961Z,99.90
2019-04-26T23:30:15.299Z,99.90
2019-04-26T23:32:52.164Z,99.90
2019-04-26T23:35:20.404Z,99.90
2019-04-26T23:38:01.325Z,99.90
2019-04-26T23:40:36.353Z,99.90
2019-04-26T23:43:12.993Z,99.90
2019-04-26T23:45:48.395Z,99.90
2019-04-26T23:48:34.477Z,99.90
2019-04-26T23:51:08.458Z,99.90
2019-04-26T23:53:38.819Z,99.90
2019-04-26T23:56:09.449Z,99.90
2019-04-26T23:58:40.225Z,99.90
